Time;durP1;ratioP1;P1;durP2;ratioP2;P2;SDS_P1;SDS_P2;PMS_P1;PMS_P2;Temp;Humidity;BMP_temperature;BMP_pressure;BME280_temperature;BME280_humidity;BME280_pressure;Samples;Min_cycle;Max_cycle;Signal;HPM_P1;HPM_P2
2023/11/02 00:04:02;;;;;;;3.50;1.00;;;10.90;26.10;;;;;;20332378;29;20470;-43
2023/11/02 00:14:03;;;;;;;4.35;1.27;;;10.90;27.10;;;;;;20354765;29;20777;-42
2023/11/02 00:24:04;;;;;;;4.15;0.95;;;11.00;25.00;;;;;;20344056;29;20047;-43
2023/11/02 00:34:05;;;;;;;6.35;1.30;;;11.10;21.60;;;;;;20350482;29;20051;-43
2023/11/02 00:44:06;;;;;;;7.18;1.25;;;11.20;18.50;;;;;;20348242;29;20353;-43
2023/11/02 00:54:07;;;;;;;3.20;1.00;;;11.20;20.20;;;;;;20318433;29;20047;-43
2023/11/02 01:04:40;;;;;;;4.82;1.20;;;11.30;17.60;;;;;;20315445;29;20099;-43
2023/11/02 01:14:48;;;;;;;4.03;0.85;;;11.30;12.50;;;;;;20315117;29;20445;-43
2023/11/02 01:24:48;;;;;;;9.20;0.95;;;11.40;6.20;;;;;;20314249;29;20609;-41
2023/11/02 01:34:49;;;;;;;2.42;1.00;;;11.60;1.00;;;;;;20316054;29;20052;-42
2023/11/02 01:45:08;;;;;;;6.45;1.00;;;11.60;1.00;;;;;;20324348;29;20055;-42
2023/11/02 01:55:26;;;;;;;6.45;1.23;;;11.70;1.00;;;;;;20325543;29;20064;-43
2023/11/02 02:05:50;;;;;;;3.35;0.95;;;11.60;1.00;;;;;;20318731;29;20134;-42
2023/11/02 02:16:08;;;;;;;5.28;1.05;;;11.70;1.00;;;;;;20320797;29;20055;-42
2023/11/02 02:26:26;;;;;;;4.03;1.00;;;11.70;1.00;;;;;;20321184;29;20047;-42
2023/11/02 02:36:39;;;;;;;7.32;1.00;;;11.70;1.00;;;;;;20315992;29;20062;-42
2023/11/02 02:46:41;;;;;;;5.20;0.98;;;11.80;1.00;;;;;;20308012;29;20052;-42
2023/11/02 02:56:45;;;;;;;5.50;0.98;;;11.80;1.00;;;;;;20304783;29;20491;-42
2023/11/02 03:06:54;;;;;;;4.07;0.90;;;11.70;1.00;;;;;;20300777;29;20598;-43
2023/11/02 03:17:06;;;;;;;5.43;0.82;;;11.70;1.00;;;;;;20303370;29;20035;-42
2023/11/02 03:27:16;;;;;;;5.65;0.70;;;11.70;1.00;;;;;;20306283;29;20052;-42
2023/11/02 03:37:28;;;;;;;5.22;1.00;;;11.70;1.00;;;;;;20310045;29;20048;-43
2023/11/02 03:47:34;;;;;;;7.22;0.95;;;11.60;1.00;;;;;;20304414;29;20412;-42
2023/11/02 03:57:55;;;;;;;5.97;0.97;;;11.60;1.00;;;;;;20310398;29;20060;-42
2023/11/02 04:08:16;;;;;;;6.93;1.52;;;11.60;1.00;;;;;;20300890;29;20079;-42
2023/11/02 04:18:17;;;;;;;4.38;0.80;;;11.70;1.00;;;;;;20297063;29;20159;-42
2023/11/02 04:28:18;;;;;;;6.00;0.88;;;11.70;1.00;;;;;;20318934;29;20039;-42
2023/11/02 04:38:19;;;;;;;2.93;0.57;;;11.70;1.00;;;;;;20317004;29;20075;-42
2023/11/02 04:48:20;;;;;;;6.03;0.87;;;11.70;1.00;;;;;;20312064;29;20928;-42
2023/11/02 04:58:20;;;;;;;4.20;0.68;;;11.80;1.00;;;;;;20313202;29;20875;-42
2023/11/02 05:08:22;;;;;;;6.00;0.73;;;11.80;1.00;;;;;;20315316;29;20382;-41
2023/11/02 05:18:22;;;;;;;5.35;0.60;;;11.80;1.00;;;;;;20335192;29;20396;-41
2023/11/02 05:28:23;;;;;;;2.80;0.50;;;11.80;1.00;;;;;;20330993;29;20629;-42
2023/11/02 05:38:23;;;;;;;5.78;0.80;;;11.90;1.00;;;;;;20326975;29;20035;-41
2023/11/02 05:48:24;;;;;;;7.05;0.90;;;11.70;1.00;;;;;;20327471;29;20040;-41
2023/11/02 05:58:25;;;;;;;3.55;0.70;;;11.20;1.00;;;;;;20327739;29;20044;-41
2023/11/02 06:08:26;;;;;;;4.15;0.77;;;10.90;11.80;;;;;;20317359;29;20700;-41
2023/11/02 06:18:26;;;;;;;4.13;1.58;;;10.80;13.70;;;;;;20313571;29;20035;-41
2023/11/02 06:28:27;;;;;;;4.63;0.75;;;10.80;11.30;;;;;;20309092;29;20035;-41
2023/11/02 06:38:29;;;;;;;5.05;0.88;;;11.00;6.50;;;;;;20314086;29;20118;-39
2023/11/02 06:48:29;;;;;;;2.55;0.63;;;11.00;10.60;;;;;;20309096;29;20055;-40
2023/11/02 06:58:30;;;;;;;3.65;0.75;;;11.00;13.50;;;;;;20338306;29;20051;-40
2023/11/02 07:08:31;;;;;;;4.13;0.90;;;11.10;12.70;;;;;;20357609;29;20044;-41
2023/11/02 07:18:31;;;;;;;1.30;0.52;;;11.20;5.50;;;;;;20331156;29;20055;-41
2023/11/02 07:28:33;;;;;;;1.95;0.50;;;11.30;3.20;;;;;;20328883;29;20051;-41
2023/11/02 07:38:34;;;;;;;3.97;0.68;;;11.50;7.30;;;;;;20302994;29;20082;-41
2023/11/02 07:48:35;;;;;;;2.95;0.60;;;11.70;11.00;;;;;;20323296;29;20054;-41
2023/11/02 07:58:36;;;;;;;1.90;0.60;;;11.90;9.30;;;;;;20336499;29;20036;-41
2023/11/02 08:08:37;;;;;;;2.63;0.85;;;12.10;15.50;;;;;;20339457;29;20233;-41
2023/11/02 08:18:38;;;;;;;3.30;0.82;;;11.90;30.20;;;;;;20344159;29;20044;-42
2023/11/02 08:28:38;;;;;;;2.22;0.70;;;11.80;54.90;;;;;;20342123;29;20047;-42
2023/11/02 08:38:39;;;;;;;2.45;0.60;;;11.80;84.80;;;;;;20348796;29;20059;-41
2023/11/02 08:48:39;;;;;;;3.17;0.73;;;12.00;51.40;;;;;;20338277;29;20075;-42
2023/11/02 08:58:47;;;;;;;5.22;1.20;;;12.30;24.30;;;;;;20347128;29;20587;-42
2023/11/02 09:08:49;;;;;;;8.00;1.00;;;12.70;1.00;;;;;;20343040;29;20055;-42
2023/11/02 09:18:51;;;;;;;4.80;0.98;;;13.10;1.00;;;;;;20338789;29;20048;-40
2023/11/02 09:28:52;;;;;;;6.38;0.93;;;13.40;1.00;;;;;;20344480;29;20091;-42
2023/11/02 09:38:53;;;;;;;7.88;0.98;;;13.60;1.00;;;;;;20342954;29;20103;-41
2023/11/02 09:48:54;;;;;;;5.60;1.00;;;13.60;1.00;;;;;;20328688;29;20063;-41
2023/11/02 09:58:56;;;;;;;7.67;1.03;;;13.20;1.00;;;;;;20334209;29;20056;-42
2023/11/02 10:08:56;;;;;;;7.13;1.15;;;13.60;1.00;;;;;;20332680;29;20051;-41
2023/11/02 10:18:57;;;;;;;6.47;1.00;;;13.90;1.00;;;;;;20346890;29;20055;-42
2023/11/02 10:29:02;;;;;;;4.70;0.80;;;14.10;1.00;;;;;;20335696;29;20114;-42
2023/11/02 10:39:03;;;;;;;7.15;1.17;;;14.20;1.00;;;;;;20334476;29;20162;-41
2023/11/02 10:49:07;;;;;;;8.67;1.07;;;14.00;1.00;;;;;;20341772;29;20044;-42
2023/11/02 10:59:10;;;;;;;8.77;1.00;;;14.10;1.00;;;;;;20273401;29;20225;-41
2023/11/02 11:09:12;;;;;;;6.70;1.25;;;13.90;1.00;;;;;;20320631;29;20903;-42
2023/11/02 11:19:13;;;;;;;7.50;1.10;;;13.50;1.00;;;;;;20372716;29;20055;-41
2023/11/02 11:29:42;;;;;;;6.40;0.98;;;13.40;1.00;;;;;;20372391;29;20530;-41
2023/11/02 11:39:52;;;;;;;5.55;1.00;;;13.00;1.00;;;;;;20332992;29;20081;-40
2023/11/02 11:49:53;;;;;;;7.80;1.17;;;12.30;1.00;;;;;;20320969;29;20052;-41
2023/11/02 11:59:54;;;;;;;9.27;3.35;;;12.30;1.00;;;;;;20331785;29;20052;-41
2023/11/02 12:10:03;;;;;;;10.32;1.40;;;12.10;1.00;;;;;;20321758;29;20043;-41
2023/11/02 12:20:05;;;;;;;7.88;1.20;;;11.90;1.00;;;;;;20321223;29;20044;-41
2023/11/02 12:30:08;;;;;;;8.52;0.80;;;11.70;16.00;;;;;;20332391;29;20366;-41
2023/11/02 12:40:09;;;;;;;7.68;1.25;;;11.70;13.80;;;;;;20347440;29;20047;-41
2023/11/02 12:50:30;;;;;;;6.75;0.70;;;11.70;9.50;;;;;;20359114;29;20039;-41
2023/11/02 13:00:33;;;;;;;10.15;1.20;;;11.90;1.00;;;;;;20359701;29;20151;-41
2023/11/02 13:10:41;;;;;;;7.90;1.25;;;12.10;1.00;;;;;;20366661;29;20039;-41
2023/11/02 13:20:43;;;;;;;4.30;0.70;;;12.30;1.00;;;;;;20350370;29;20524;-42
2023/11/02 13:30:44;;;;;;;9.95;1.77;;;12.20;1.00;;;;;;20339892;29;20559;-41
2023/11/02 13:40:44;;;;;;;9.02;1.25;;;12.00;1.00;;;;;;20355649;29;20051;-41
2023/11/02 13:50:46;;;;;;;6.68;0.90;;;11.60;1.00;;;;;;20344194;29;20134;-42
2023/11/02 14:00:47;;;;;;;8.52;0.70;;;11.40;1.00;;;;;;20337671;29;20146;-42
2023/11/02 14:10:48;;;;;;;6.97;1.30;;;11.50;1.00;;;;;;20346125;29;20131;-41
2023/11/02 14:20:48;;;;;;;5.18;0.73;;;11.50;1.00;;;;;;20339674;29;20444;-41
2023/11/02 14:30:50;;;;;;;3.38;0.50;;;11.40;1.00;;;;;;20336424;29;20055;-40
2023/11/02 14:40:51;;;;;;;3.88;0.90;;;11.30;1.00;;;;;;20337755;29;20438;-40
2023/11/02 14:50:51;;;;;;;2.97;0.60;;;11.10;1.00;;;;;;20339671;29;21941;-40
2023/11/02 15:00:52;;;;;;;4.10;0.45;;;10.90;2.00;;;;;;20338363;29;20511;-42
2023/11/02 15:10:53;;;;;;;3.42;0.50;;;10.70;1.60;;;;;;20334672;29;20052;-41
2023/11/02 15:20:54;;;;;;;4.82;0.57;;;10.90;1.00;;;;;;20332148;29;20058;-43
2023/11/02 15:30:54;;;;;;;2.90;0.60;;;11.10;1.00;;;;;;20333311;29;20130;-42
2023/11/02 15:40:55;;;;;;;2.47;0.33;;;11.20;1.00;;;;;;20321597;29;20102;-41
2023/11/02 15:50:55;;;;;;;2.92;0.55;;;11.00;1.00;;;;;;20331517;29;20047;-41
2023/11/02 16:00:56;;;;;;;4.47;0.52;;;10.90;1.00;;;;;;20333008;29;20174;-42
2023/11/02 16:10:56;;;;;;;4.82;0.47;;;10.80;1.00;;;;;;20333826;29;20107;-41
2023/11/02 16:20:57;;;;;;;3.58;0.50;;;10.60;5.90;;;;;;20333571;29;20055;-41
2023/11/02 16:30:59;;;;;;;2.35;0.40;;;10.20;23.20;;;;;;20355975;29;20048;-42
2023/11/02 16:41:00;;;;;;;3.10;0.43;;;10.10;38.70;;;;;;20353863;29;20407;-41
2023/11/02 16:51:01;;;;;;;2.20;0.57;;;10.00;32.20;;;;;;20349765;29;20123;-41
2023/11/02 17:01:03;;;;;;;1.98;0.40;;;10.20;25.30;;;;;;20377581;29;20284;-41
2023/11/02 17:11:04;;;;;;;5.47;0.75;;;10.30;12.20;;;;;;20375028;29;20492;-41
2023/11/02 17:21:05;;;;;;;2.75;0.50;;;10.40;1.00;;;;;;20340602;29;20103;-41
2023/11/02 17:31:08;;;;;;;1.88;0.22;;;10.60;1.00;;;;;;20339291;29;20052;-41
2023/11/02 17:41:09;;;;;;;3.42;0.50;;;10.90;1.00;;;;;;20337289;29;20043;-41
2023/11/02 17:51:09;;;;;;;0.82;0.30;;;11.10;1.00;;;;;;20332941;29;20052;-42
2023/11/02 18:01:10;;;;;;;2.50;0.50;;;11.30;1.00;;;;;;20302826;29;20758;-41
2023/11/02 18:11:11;;;;;;;3.15;0.40;;;11.30;1.00;;;;;;20364535;29;20483;-42
2023/11/02 18:21:11;;;;;;;3.90;0.40;;;11.30;1.00;;;;;;20354254;29;20130;-42
2023/11/02 18:31:12;;;;;;;2.55;0.35;;;11.40;1.00;;;;;;20349618;29;21067;-42
2023/11/02 18:41:18;;;;;;;2.20;0.30;;;11.40;1.00;;;;;;20354822;29;20386;-43
2023/11/02 18:51:18;;;;;;;3.20;0.57;;;11.30;1.00;;;;;;20344085;29;20040;-41
2023/11/02 19:01:19;;;;;;;3.22;0.43;;;11.40;1.00;;;;;;20343753;29;20134;-41
2023/11/02 19:11:20;;;;;;;4.90;0.50;;;11.40;1.00;;;;;;20341634;29;20048;-42
2023/11/02 19:21:20;;;;;;;1.67;0.38;;;11.40;1.00;;;;;;20360300;29;20055;-42
2023/11/02 19:31:21;;;;;;;1.75;0.50;;;11.40;1.00;;;;;;20367262;29;20094;-41
2023/11/02 19:41:21;;;;;;;0.85;0.40;;;11.40;1.00;;;;;;20367916;29;20056;-41
2023/11/02 19:51:22;;;;;;;3.28;0.40;;;11.30;1.00;;;;;;20339539;29;20650;-42
2023/11/02 20:01:25;;;;;;;1.85;0.30;;;10.90;1.00;;;;;;20364284;29;20087;-41
2023/11/02 20:11:26;;;;;;;1.60;0.40;;;10.50;1.00;;;;;;20356819;29;20050;-41
2023/11/02 20:21:26;;;;;;;1.95;0.50;;;10.20;1.00;;;;;;20351896;29;20044;-42
2023/11/02 20:31:27;;;;;;;1.90;0.50;;;9.80;1.00;;;;;;20309430;29;20074;-42
2023/11/02 20:41:28;;;;;;;1.45;0.38;;;9.60;1.00;;;;;;20343393;29;21317;-41
2023/11/02 20:51:28;;;;;;;2.03;0.50;;;9.40;13.30;;;;;;20378598;29;20475;-41
2023/11/02 21:01:29;;;;;;;2.63;0.70;;;9.20;37.70;;;;;;20365998;29;20075;-42
2023/11/02 21:11:30;;;;;;;5.75;1.08;;;9.10;70.60;;;;;;20373561;29;20044;-41
2023/11/02 21:21:30;;;;;;;2.20;0.73;;;8.90;95.50;;;;;;20361961;29;20043;-42
2023/11/02 21:31:31;;;;;;;3.53;0.90;;;8.80;99.90;;;;;;20346892;29;20134;-41
2023/11/02 21:41:31;;;;;;;3.13;0.68;;;8.70;99.90;;;;;;20352989;29;20050;-41
2023/11/02 21:51:32;;;;;;;3.43;0.90;;;8.60;99.90;;;;;;20361955;29;20582;-42
2023/11/02 22:01:33;;;;;;;2.45;0.70;;;8.60;99.90;;;;;;20362149;29;20472;-42
2023/11/02 22:11:34;;;;;;;3.47;0.90;;;8.70;99.90;;;;;;20380700;29;20496;-42
2023/11/02 22:21:35;;;;;;;2.80;1.10;;;8.70;99.90;;;;;;20379148;29;20098;-42
2023/11/02 22:31:36;;;;;;;2.75;1.25;;;8.80;99.90;;;;;;20359565;29;20595;-41
2023/11/02 22:41:41;;;;;;;6.45;2.08;;;8.90;99.90;;;;;;20363953;29;20176;-41
2023/11/02 22:51:45;;;;;;;4.00;1.67;;;8.90;99.90;;;;;;20357960;29;20102;-42
2023/11/02 23:01:45;;;;;;;7.18;1.75;;;9.10;99.90;;;;;;20357818;29;20095;-41
2023/11/02 23:11:46;;;;;;;4.60;1.80;;;9.10;99.90;;;;;;20357866;29;20075;-41
2023/11/02 23:21:46;;;;;;;4.22;1.70;;;9.20;99.90;;;;;;20379055;29;20474;-41
2023/11/02 23:31:50;;;;;;;4.13;1.60;;;9.20;99.90;;;;;;20356123;29;20043;-42
2023/11/02 23:41:50;;;;;;;3.70;1.38;;;9.30;95.50;;;;;;20362823;29;20483;-41
2023/11/02 23:51:52;;;;;;;5.57;1.50;;;9.20;83.40;;;;;;20364139;29;20047;-41
